Time;durP1;ratioP1;P1;durP2;ratioP2;P2;SDS_P1;SDS_P2;PMS_P1;PMS_P2;Temp;Humidity;BMP_temperature;BMP_pressure;BME280_temperature;BME280_humidity;BME280_pressure;Samples;Min_cycle;Max_cycle;Signal;HPM_P1;HPM_P2
2021/07/10 00:02:03;;;;;;;16.63;15.43;;;12.90;80.80;;;;;;4995777;29;20598;-69
2021/07/10 00:04:35;;;;;;;17.15;15.75;;;12.90;80.50;;;;;;4993844;29;20856;-69
2021/07/10 00:07:07;;;;;;;17.52;16.02;;;12.90;80.70;;;;;;4994444;29;20528;-69
2021/07/10 00:09:39;;;;;;;16.77;15.57;;;12.90;80.80;;;;;;5008761;29;20093;-69
2021/07/10 00:12:11;;;;;;;17.38;15.90;;;12.90;81.70;;;;;;4993165;29;20046;-69
2021/07/10 00:14:43;;;;;;;16.98;15.68;;;12.90;80.40;;;;;;4993285;29;20094;-70
2021/07/10 00:17:14;;;;;;;16.98;15.68;;;12.90;80.10;;;;;;4991977;29;20129;-70
2021/07/10 00:19:52;;;;;;;17.80;16.50;;;12.90;81.10;;;;;;4994394;29;20126;-70
2021/07/10 00:22:24;;;;;;;17.08;15.75;;;12.90;80.90;;;;;;4993808;29;20141;-68
2021/07/10 00:24:56;;;;;;;17.80;16.05;;;12.80;80.40;;;;;;4992957;29;20090;-69
2021/07/10 00:27:28;;;;;;;17.23;15.80;;;12.80;80.70;;;;;;5010253;29;20052;-69
2021/07/10 00:30:00;;;;;;;17.42;16.13;;;12.80;81.10;;;;;;4992827;29;20050;-69
2021/07/10 00:32:32;;;;;;;17.75;16.35;;;12.80;81.00;;;;;;4995778;29;20133;-69
2021/07/10 00:35:06;;;;;;;17.02;15.65;;;12.70;81.30;;;;;;4994106;29;20126;-68
2021/07/10 00:37:38;;;;;;;17.15;15.75;;;12.70;81.40;;;;;;4992701;29;20274;-68
2021/07/10 00:40:11;;;;;;;17.48;15.98;;;12.70;81.90;;;;;;4996664;29;20594;-69
2021/07/10 00:42:45;;;;;;;17.33;15.93;;;12.60;81.10;;;;;;4993172;29;20675;-69
2021/07/10 00:45:17;;;;;;;17.80;16.30;;;12.60;81.50;;;;;;4998148;29;20054;-68
2021/07/10 00:47:49;;;;;;;17.55;16.00;;;12.60;81.50;;;;;;4991100;29;20054;-69
2021/07/10 00:50:23;;;;;;;17.58;16.05;;;12.50;81.60;;;;;;4992048;29;20153;-68
2021/07/10 00:52:55;;;;;;;16.88;15.57;;;12.50;81.60;;;;;;4993826;29;20518;-69
2021/07/10 00:55:28;;;;;;;17.10;15.82;;;12.50;81.50;;;;;;4991622;29;20053;-71
2021/07/10 00:58:01;;;;;;;17.52;16.13;;;12.50;81.50;;;;;;4994449;29;20124;-70
2021/07/10 01:00:33;;;;;;;18.27;16.67;;;12.50;82.00;;;;;;4993150;29;20121;-69
2021/07/10 01:03:05;;;;;;;17.38;16.08;;;12.50;81.90;;;;;;4993793;29;20066;-70
2021/07/10 01:05:37;;;;;;;17.08;15.77;;;12.50;81.60;;;;;;4990909;29;20039;-69
2021/07/10 01:08:09;;;;;;;17.00;15.77;;;12.50;81.90;;;;;;4990030;29;20515;-70
2021/07/10 01:10:42;;;;;;;17.27;15.88;;;12.50;82.10;;;;;;4992242;29;20145;-69
2021/07/10 01:13:14;;;;;;;17.67;16.38;;;12.40;81.60;;;;;;4994573;29;20053;-69
2021/07/10 01:15:46;;;;;;;17.75;16.20;;;12.40;81.50;;;;;;4994355;29;20423;-70
2021/07/10 01:18:18;;;;;;;17.98;16.52;;;12.40;81.90;;;;;;4994665;29;20138;-69
2021/07/10 01:20:54;;;;;;;18.08;16.58;;;12.40;81.80;;;;;;4993838;29;20057;-70
2021/07/10 01:23:26;;;;;;;17.45;16.15;;;12.40;82.10;;;;;;4999060;29;20527;-70
2021/07/10 01:25:58;;;;;;;17.67;16.38;;;12.40;82.30;;;;;;4992279;29;20126;-69
2021/07/10 01:28:30;;;;;;;17.42;16.08;;;12.30;81.90;;;;;;4993275;29;20502;-70
2021/07/10 01:31:03;;;;;;;17.83;16.45;;;12.30;81.80;;;;;;4992436;29;20493;-69
2021/07/10 01:33:36;;;;;;;17.70;16.40;;;12.30;81.50;;;;;;5003347;29;20053;-70
2021/07/10 01:36:08;;;;;;;16.90;15.60;;;12.30;81.50;;;;;;4991397;29;20464;-69
2021/07/10 01:38:40;;;;;;;17.20;15.80;;;12.40;81.50;;;;;;4992940;29;20061;-69
2021/07/10 01:41:12;;;;;;;17.75;16.35;;;12.30;81.40;;;;;;4989563;29;20767;-70
2021/07/10 01:43:44;;;;;;;17.88;16.15;;;12.30;81.70;;;;;;4993767;29;20114;-72
2021/07/10 01:46:18;;;;;;;18.17;16.67;;;12.30;81.70;;;;;;4993860;29;20056;-70
2021/07/10 01:48:50;;;;;;;17.83;16.42;;;12.30;82.50;;;;;;4990408;29;20050;-69
2021/07/10 01:51:22;;;;;;;18.13;16.67;;;12.20;83.00;;;;;;4993859;29;20133;-68
2021/07/10 01:53:55;;;;;;;17.73;16.42;;;12.10;82.70;;;;;;4992059;29;20049;-69
2021/07/10 01:56:27;;;;;;;17.63;16.23;;;12.20;82.70;;;;;;4991052;29;20046;-69
2021/07/10 01:58:58;;;;;;;17.98;16.58;;;12.10;82.50;;;;;;4993019;29;20062;-69
2021/07/10 02:01:32;;;;;;;18.38;16.65;;;12.10;82.60;;;;;;4990110;29;20114;-69
2021/07/10 02:04:07;;;;;;;18.77;16.95;;;12.10;82.20;;;;;;4990809;29;20057;-69
2021/07/10 02:06:39;;;;;;;17.38;16.02;;;12.10;82.50;;;;;;5006978;29;20054;-70
2021/07/10 02:09:12;;;;;;;18.20;16.42;;;12.10;82.20;;;;;;4993178;29;20127;-70
2021/07/10 02:11:50;;;;;;;17.58;16.25;;;12.10;82.30;;;;;;4993562;29;20057;-69
2021/07/10 02:14:21;;;;;;;17.60;16.20;;;12.10;81.90;;;;;;4994022;29;20099;-69
2021/07/10 02:16:53;;;;;;;17.17;15.88;;;12.10;83.10;;;;;;4997226;29;20049;-70
2021/07/10 02:19:25;;;;;;;17.20;15.90;;;12.10;83.00;;;;;;4994282;29;20430;-70
2021/07/10 02:21:57;;;;;;;17.13;15.90;;;12.10;84.00;;;;;;4992476;29;20133;-69
2021/07/10 02:24:29;;;;;;;17.52;16.23;;;12.10;83.90;;;;;;4991672;29;20054;-69
2021/07/10 02:27:03;;;;;;;17.35;16.05;;;12.00;83.40;;;;;;4996205;29;20046;-69
2021/07/10 02:29:35;;;;;;;16.95;15.63;;;11.90;83.90;;;;;;4990455;29;20527;-70
2021/07/10 02:32:07;;;;;;;16.92;15.73;;;11.90;84.20;;;;;;4993821;29;20085;-69
2021/07/10 02:34:39;;;;;;;17.13;15.73;;;11.90;83.90;;;;;;4991224;29;20042;-69
2021/07/10 02:37:11;;;;;;;17.58;16.17;;;11.90;84.20;;;;;;4992606;29;20050;-69
2021/07/10 02:39:43;;;;;;;17.27;15.80;;;11.90;84.70;;;;;;5005745;29;20057;-69
2021/07/10 02:42:15;;;;;;;17.17;15.88;;;11.80;84.60;;;;;;4989997;29;20177;-69
2021/07/10 02:44:46;;;;;;;17.95;16.35;;;11.80;85.10;;;;;;4975067;29;20142;-69
2021/07/10 02:47:18;;;;;;;17.63;16.15;;;11.80;85.20;;;;;;4991097;29;20062;-69
2021/07/10 02:49:50;;;;;;;16.95;15.65;;;11.90;85.00;;;;;;4997038;29;20498;-69
2021/07/10 02:52:22;;;;;;;17.27;15.73;;;11.90;84.90;;;;;;4991004;29;20046;-68
2021/07/10 02:54:54;;;;;;;17.15;15.93;;;11.90;84.10;;;;;;4990779;29;20162;-69
2021/07/10 02:57:26;;;;;;;17.30;15.90;;;11.90;84.00;;;;;;4990480;29;20144;-69
2021/07/10 02:59:59;;;;;;;17.40;16.10;;;11.90;83.40;;;;;;4992437;29;20566;-69
2021/07/10 03:02:31;;;;;;;16.98;15.68;;;11.90;83.10;;;;;;4991218;29;20466;-70
2021/07/10 03:05:05;;;;;;;17.33;15.95;;;12.00;82.90;;;;;;4992611;29;20414;-70
2021/07/10 03:07:41;;;;;;;17.05;15.68;;;11.90;83.20;;;;;;4990740;29;20117;-70
2021/07/10 03:10:16;;;;;;;16.80;15.50;;;11.80;82.50;;;;;;5003621;29;20073;-68
2021/07/10 03:12:48;;;;;;;17.35;15.93;;;11.80;82.50;;;;;;4989458;29;20122;-70
2021/07/10 03:15:20;;;;;;;16.58;15.38;;;11.80;82.80;;;;;;4990326;29;20090;-70
2021/07/10 03:17:53;;;;;;;16.67;15.18;;;11.80;82.40;;;;;;4991534;29;20152;-69
2021/07/10 03:20:26;;;;;;;16.48;15.18;;;11.80;82.50;;;;;;4992120;29;20128;-69
2021/07/10 03:22:58;;;;;;;16.45;15.25;;;11.80;82.30;;;;;;4992516;29;20175;-69
2021/07/10 03:25:30;;;;;;;17.13;15.82;;;11.80;82.40;;;;;;4995540;29;20102;-70
2021/07/10 03:28:02;;;;;;;17.27;15.70;;;11.80;83.00;;;;;;4996171;29;20134;-69
2021/07/10 03:30:34;;;;;;;16.75;15.52;;;11.70;82.90;;;;;;4993153;29;20054;-69
2021/07/10 03:33:06;;;;;;;16.40;15.18;;;11.70;83.10;;;;;;4995485;29;20057;-68
2021/07/10 03:35:38;;;;;;;16.38;15.18;;;11.70;83.00;;;;;;4995739;29;20182;-69
2021/07/10 03:38:10;;;;;;;16.83;15.52;;;11.70;83.10;;;;;;4995888;29;20116;-69
2021/07/10 03:40:42;;;;;;;16.20;15.00;;;11.70;83.30;;;;;;4995227;29;20123;-69
2021/07/10 03:43:15;;;;;;;16.65;15.23;;;11.70;83.10;;;;;;4992586;29;20533;-69
2021/07/10 03:45:47;;;;;;;16.42;15.13;;;11.60;82.70;;;;;;4992341;29;20125;-68
2021/07/10 03:48:20;;;;;;;15.90;14.80;;;11.60;82.80;;;;;;4991674;29;20460;-69
2021/07/10 03:50:52;;;;;;;17.00;15.70;;;11.60;83.10;;;;;;4993121;29;20536;-69
2021/07/10 03:53:24;;;;;;;16.45;15.25;;;11.60;82.70;;;;;;5002489;29;20058;-69
2021/07/10 03:55:56;;;;;;;16.55;15.30;;;11.60;82.70;;;;;;4995271;29;20143;-69
2021/07/10 03:58:28;;;;;;;17.25;15.85;;;11.60;82.70;;;;;;4992689;29;20139;-69
2021/07/10 04:01:00;;;;;;;16.80;15.52;;;11.50;82.60;;;;;;4995564;29;20110;-70
2021/07/10 04:03:32;;;;;;;16.60;15.30;;;11.50;82.80;;;;;;5007549;29;20129;-69
2021/07/10 04:06:04;;;;;;;17.10;15.55;;;11.40;83.10;;;;;;4992186;29;20486;-69
2021/07/10 04:08:36;;;;;;;16.73;15.32;;;11.40;83.20;;;;;;5000777;29;20066;-69
2021/07/10 04:11:10;;;;;;;17.15;15.75;;;11.40;82.90;;;;;;4995145;29;20157;-69
2021/07/10 04:13:41;;;;;;;17.35;16.05;;;11.40;83.20;;;;;;4996023;29;20046;-69
2021/07/10 04:16:13;;;;;;;16.58;15.27;;;11.40;83.20;;;;;;4992326;29;20129;-68
2021/07/10 04:18:45;;;;;;;16.85;15.40;;;11.30;83.00;;;;;;4991652;29;20472;-68
2021/07/10 04:21:18;;;;;;;16.40;15.20;;;11.40;82.80;;;;;;4989744;29;20129;-68
2021/07/10 04:23:50;;;;;;;16.60;15.40;;;11.40;82.80;;;;;;4992272;29;20058;-67
2021/07/10 04:26:22;;;;;;;16.60;15.30;;;11.40;83.00;;;;;;4993763;29;20980;-68
2021/07/10 04:28:54;;;;;;;16.63;15.35;;;11.30;83.50;;;;;;4994762;29;20469;-68
2021/07/10 04:31:26;;;;;;;16.45;15.25;;;11.40;83.60;;;;;;5004379;29;20124;-68
2021/07/10 04:33:59;;;;;;;16.85;15.60;;;11.40;83.00;;;;;;4992685;29;20057;-67
2021/07/10 04:36:31;;;;;;;16.20;14.98;;;11.40;83.40;;;;;;4991671;29;20047;-69
2021/07/10 04:39:04;;;;;;;16.65;15.35;;;11.40;83.20;;;;;;4997330;29;20045;-68
2021/07/10 04:41:36;;;;;;;16.85;15.50;;;11.50;83.00;;;;;;4957111;29;1112245;-68
2021/07/10 04:44:08;;;;;;;16.55;15.15;;;11.60;83.00;;;;;;4991728;29;20054;-68
2021/07/10 04:46:40;;;;;;;16.55;15.35;;;11.60;83.30;;;;;;4993313;29;20042;-68
2021/07/10 04:49:12;;;;;;;16.52;15.32;;;11.80;84.20;;;;;;4994232;29;20534;-68
2021/07/10 04:51:43;;;;;;;16.50;15.30;;;11.90;84.60;;;;;;5004440;29;20119;-69
2021/07/10 04:54:15;;;;;;;17.00;15.70;;;12.00;83.10;;;;;;4991608;29;20054;-68
2021/07/10 04:56:47;;;;;;;16.92;15.65;;;12.20;84.70;;;;;;4992611;29;20058;-68
2021/07/10 04:59:19;;;;;;;17.30;15.90;;;12.30;84.80;;;;;;4996967;29;21073;-69
2021/07/10 05:01:51;;;;;;;17.00;15.70;;;12.40;85.00;;;;;;4996144;29;20462;-69
2021/07/10 05:04:23;;;;;;;16.88;15.60;;;12.50;85.70;;;;;;5006253;29;20427;-69
2021/07/10 05:06:55;;;;;;;17.30;15.98;;;12.60;85.30;;;;;;4993382;29;20124;-68
2021/07/10 05:09:27;;;;;;;17.80;16.30;;;12.80;84.80;;;;;;4994230;29;20125;-68
2021/07/10 05:11:59;;;;;;;17.60;16.30;;;12.90;84.80;;;;;;4998549;29;20133;-69
2021/07/10 05:14:31;;;;;;;17.67;16.38;;;13.10;84.10;;;;;;4993358;29;20447;-69
2021/07/10 05:17:03;;;;;;;17.52;16.23;;;13.20;83.90;;;;;;4994065;29;20070;-69
2021/07/10 05:19:35;;;;;;;17.45;16.15;;;13.30;84.20;;;;;;4995865;29;20046;-70
2021/07/10 05:22:07;;;;;;;18.13;16.73;;;13.40;84.30;;;;;;4992073;29;20132;-69
2021/07/10 05:24:39;;;;;;;17.70;16.20;;;13.50;84.40;;;;;;4991421;29;20126;-69
2021/07/10 05:27:11;;;;;;;17.48;16.08;;;13.60;84.10;;;;;;4991659;29;20050;-69
2021/07/10 05:29:44;;;;;;;17.25;15.95;;;13.70;83.60;;;;;;4995832;29;20102;-70
2021/07/10 05:32:17;;;;;;;17.58;16.27;;;13.80;83.30;;;;;;4989751;29;20141;-71
2021/07/10 05:34:50;;;;;;;17.70;16.35;;;13.80;83.10;;;;;;4996093;29;20102;-70
2021/07/10 05:37:21;;;;;;;18.17;16.52;;;14.00;82.90;;;;;;4993239;29;20581;-70
2021/07/10 05:39:53;;;;;;;17.40;16.10;;;14.10;83.60;;;;;;4993707;29;20054;-70
2021/07/10 05:42:25;;;;;;;18.25;16.70;;;14.10;82.40;;;;;;4992988;29;20073;-70
2021/07/10 05:44:57;;;;;;;17.88;16.58;;;14.30;83.00;;;;;;4989888;29;20085;-69
2021/07/10 05:47:29;;;;;;;17.45;16.15;;;14.40;82.80;;;;;;4993699;29;20060;-70
2021/07/10 05:50:02;;;;;;;17.35;16.05;;;14.50;82.00;;;;;;4992772;29;20463;-70
2021/07/10 05:52:35;;;;;;;18.15;16.73;;;14.60;82.00;;;;;;4990905;29;20085;-69
2021/07/10 05:55:07;;;;;;;18.30;16.80;;;14.70;81.70;;;;;;4988810;29;20068;-69
2021/07/10 05:57:39;;;;;;;18.73;17.25;;;14.70;83.20;;;;;;4995776;29;20057;-70
2021/07/10 06:00:12;;;;;;;19.55;18.05;;;14.90;81.40;;;;;;4990935;29;20050;-70
2021/07/10 06:02:44;;;;;;;17.65;16.30;;;14.90;81.30;;;;;;4993104;29;20546;-71
2021/07/10 06:05:16;;;;;;;18.30;16.90;;;15.00;81.20;;;;;;4991565;29;20054;-72
2021/07/10 06:07:48;;;;;;;18.30;16.83;;;15.10;81.10;;;;;;4993994;29;20183;-69
2021/07/10 06:10:21;;;;;;;18.48;17.10;;;15.20;80.80;;;;;;4991526;29;20808;-71
2021/07/10 06:12:52;;;;;;;19.23;17.58;;;15.40;81.60;;;;;;4990966;29;20772;-70
2021/07/10 06:15:24;;;;;;;18.02;16.63;;;15.50;80.20;;;;;;4989542;29;20452;-71
2021/07/10 06:17:56;;;;;;;17.83;16.50;;;15.60;79.00;;;;;;4997026;29;20073;-69
2021/07/10 06:20:28;;;;;;;18.38;16.98;;;15.70;80.20;;;;;;5003917;29;20414;-68
2021/07/10 06:23:01;;;;;;;17.67;16.38;;;15.80;79.00;;;;;;4976209;29;20574;-70
2021/07/10 06:25:34;;;;;;;18.23;16.83;;;15.90;78.50;;;;;;4992848;29;20074;-70
2021/07/10 06:28:07;;;;;;;18.42;17.02;;;16.00;79.20;;;;;;4988380;29;20046;-71
2021/07/10 06:30:39;;;;;;;17.70;16.40;;;16.10;79.30;;;;;;4993736;29;20663;-70
2021/07/10 06:33:11;;;;;;;17.88;16.48;;;16.20;77.20;;;;;;4992526;29;20113;-70
2021/07/10 06:35:43;;;;;;;18.45;16.90;;;16.30;78.90;;;;;;4995191;29;20411;-70
2021/07/10 06:38:15;;;;;;;19.80;18.20;;;16.40;78.70;;;;;;4990410;29;21042;-70
2021/07/10 06:40:47;;;;;;;18.77;17.27;;;16.60;79.20;;;;;;4989664;29;20058;-71
2021/07/10 06:43:19;;;;;;;18.38;17.08;;;16.70;77.40;;;;;;4990793;29;20073;-69
2021/07/10 06:45:51;;;;;;;19.42;17.80;;;16.90;76.40;;;;;;4987988;29;20144;-69
2021/07/10 06:48:23;;;;;;;19.17;17.75;;;17.00;77.00;;;;;;4991826;29;20133;-70
2021/07/10 06:50:55;;;;;;;19.38;17.67;;;17.10;76.60;;;;;;4989527;29;20142;-69
2021/07/10 06:53:27;;;;;;;20.25;18.73;;;17.30;76.30;;;;;;4991454;29;20523;-70
2021/07/10 06:55:59;;;;;;;19.60;18.08;;;17.40;75.10;;;;;;4989684;29;20828;-69
2021/07/10 06:58:31;;;;;;;19.20;17.60;;;17.40;76.50;;;;;;4992457;29;20422;-71
2021/07/10 07:01:04;;;;;;;18.30;16.98;;;17.50;75.80;;;;;;4996380;29;20558;-69
2021/07/10 07:03:36;;;;;;;18.17;16.67;;;17.60;74.70;;;;;;4993599;29;20053;-69
2021/07/10 07:06:08;;;;;;;19.20;17.50;;;17.60;71.20;;;;;;4989262;29;20053;-70
2021/07/10 07:08:40;;;;;;;19.20;17.70;;;17.70;74.50;;;;;;4991440;29;20128;-70
2021/07/10 07:11:12;;;;;;;18.35;16.95;;;17.80;73.30;;;;;;4994337;29;20844;-70
2021/07/10 07:13:44;;;;;;;18.55;16.80;;;17.80;72.80;;;;;;4997860;29;20118;-70
2021/07/10 07:16:16;;;;;;;18.27;16.88;;;18.00;73.80;;;;;;4991448;29;20068;-69
2021/07/10 07:18:48;;;;;;;19.75;18.02;;;18.10;73.70;;;;;;4992377;29;20083;-70
2021/07/10 07:21:20;;;;;;;18.30;16.90;;;18.20;72.40;;;;;;4991654;29;20723;-70
2021/07/10 07:23:53;;;;;;;18.23;16.80;;;18.20;69.80;;;;;;4990804;29;20054;-69
2021/07/10 07:26:25;;;;;;;19.85;18.25;;;18.20;69.30;;;;;;4996435;29;20065;-69
2021/07/10 07:28:57;;;;;;;20.55;18.75;;;18.30;71.50;;;;;;4989576;29;20041;-68
2021/07/10 07:31:29;;;;;;;18.58;17.17;;;18.50;72.30;;;;;;4989836;29;20222;-68
2021/07/10 07:34:02;;;;;;;18.77;17.38;;;18.60;71.40;;;;;;4991233;29;20042;-70
2021/07/10 07:36:34;;;;;;;18.67;17.08;;;18.70;72.60;;;;;;4992706;29;20421;-70
2021/07/10 07:39:07;;;;;;;18.83;17.33;;;18.80;71.60;;;;;;4990723;29;21051;-68
2021/07/10 07:41:39;;;;;;;19.08;17.55;;;18.90;71.70;;;;;;4993062;29;20539;-69
2021/07/10 07:44:11;;;;;;;18.20;16.85;;;18.90;70.20;;;;;;4992451;29;20066;-70
2021/07/10 07:46:43;;;;;;;19.27;17.65;;;19.00;70.30;;;;;;4999190;29;20135;-70
2021/07/10 07:49:15;;;;;;;19.40;17.90;;;19.10;71.10;;;;;;4989083;29;20054;-70
2021/07/10 07:51:47;;;;;;;19.20;17.80;;;19.10;71.10;;;;;;4989604;29;20069;-69
2021/07/10 07:54:19;;;;;;;21.10;19.30;;;19.20;71.20;;;;;;4988496;29;20587;-69
2021/07/10 07:56:51;;;;;;;19.13;17.63;;;19.30;71.40;;;;;;4990563;29;20077;-68
2021/07/10 07:59:23;;;;;;;18.77;17.38;;;19.40;71.20;;;;;;4990335;29;20541;-69
2021/07/10 08:01:55;;;;;;;19.70;17.90;;;19.40;71.50;;;;;;4988556;29;20080;-69
2021/07/10 08:04:27;;;;;;;19.20;17.70;;;19.40;70.80;;;;;;4992385;29;20536;-69
2021/07/10 08:06:59;;;;;;;18.98;17.58;;;19.40;71.20;;;;;;4992060;29;20734;-69
2021/07/10 08:09:31;;;;;;;19.40;17.80;;;19.50;70.30;;;;;;4995346;29;20511;-68
2021/07/10 08:12:03;;;;;;;19.05;17.65;;;19.50;71.00;;;;;;4992020;29;20190;-70
2021/07/10 08:14:37;;;;;;;18.90;17.50;;;19.60;70.90;;;;;;4993171;29;20090;-69
2021/07/10 08:17:09;;;;;;;19.15;17.55;;;19.70;69.80;;;;;;4993590;29;20073;-70
2021/07/10 08:19:41;;;;;;;19.13;17.73;;;19.80;69.60;;;;;;4995449;29;20753;-70
2021/07/10 08:22:13;;;;;;;19.40;17.90;;;19.90;70.80;;;;;;4992711;29;20666;-70
2021/07/10 08:24:45;;;;;;;19.55;18.05;;;20.00;70.00;;;;;;4994235;29;20181;-70
2021/07/10 08:27:17;;;;;;;19.75;18.05;;;20.10;69.00;;;;;;4992796;29;20049;-73
2021/07/10 08:29:49;;;;;;;20.05;18.33;;;20.10;67.50;;;;;;4993898;29;20058;-70
2021/07/10 08:32:21;;;;;;;19.38;17.90;;;20.20;69.00;;;;;;4993937;29;20042;-69
2021/07/10 08:34:53;;;;;;;19.27;17.70;;;20.30;69.00;;;;;;4993374;29;20129;-70
2021/07/10 08:37:24;;;;;;;19.20;17.80;;;20.40;68.60;;;;;;4993259;29;20122;-70
2021/07/10 08:39:57;;;;;;;19.20;17.73;;;20.30;68.00;;;;;;4993894;29;20125;-70
2021/07/10 08:42:29;;;;;;;19.52;18.02;;;20.40;67.90;;;;;;4995433;29;20142;-69
2021/07/10 08:45:05;;;;;;;19.70;18.20;;;20.50;67.90;;;;;;4991878;29;20058;-69
2021/07/10 08:47:39;;;;;;;20.73;19.02;;;20.60;67.50;;;;;;4992076;29;20118;-69
2021/07/10 08:50:18;;;;;;;19.85;18.40;;;20.60;68.20;;;;;;4992527;29;20054;-70
2021/07/10 08:52:53;;;;;;;20.10;18.50;;;20.80;69.40;;;;;;4994577;29;20046;-69
2021/07/10 08:55:25;;;;;;;20.27;18.67;;;20.80;68.70;;;;;;4991918;29;20149;-69
2021/07/10 08:58:01;;;;;;;20.08;18.48;;;20.90;67.90;;;;;;4994016;29;20038;-70
2021/07/10 09:00:38;;;;;;;20.45;18.85;;;21.00;69.20;;;;;;4992532;29;20095;-69
2021/07/10 09:03:10;;;;;;;19.80;18.40;;;21.10;69.20;;;;;;4996087;29;20042;-69
2021/07/10 09:05:42;;;;;;;19.63;18.20;;;21.20;68.70;;;;;;4989712;29;20065;-69
2021/07/10 09:08:22;;;;;;;19.88;18.27;;;21.30;67.10;;;;;;4991713;29;20042;-70
2021/07/10 09:11:09;;;;;;;20.05;18.55;;;21.20;68.00;;;;;;4995498;29;20042;-69
2021/07/10 09:13:50;;;;;;;20.83;19.27;;;21.30;68.50;;;;;;4993684;29;20050;-69
2021/07/10 09:16:28;;;;;;;19.77;18.30;;;21.30;67.30;;;;;;4993145;29;20042;-69
2021/07/10 09:19:08;;;;;;;20.42;18.92;;;21.30;68.30;;;;;;4991907;29;20459;-69
2021/07/10 09:21:50;;;;;;;21.25;19.58;;;21.40;68.40;;;;;;4990145;29;20607;-68
2021/07/10 09:24:37;;;;;;;20.40;18.75;;;21.40;68.90;;;;;;4990775;29;20422;-68
2021/07/10 09:27:10;;;;;;;20.55;18.95;;;21.50;67.50;;;;;;4993660;29;20070;-68
2021/07/10 09:29:44;;;;;;;20.30;18.80;;;21.60;68.70;;;;;;4992736;29;20050;-69
2021/07/10 09:32:21;;;;;;;19.63;18.23;;;21.70;68.70;;;;;;4992941;29;20532;-69
2021/07/10 09:34:55;;;;;;;20.20;18.70;;;21.80;68.80;;;;;;4994301;29;20103;-68
2021/07/10 09:37:29;;;;;;;20.50;18.80;;;21.80;67.70;;;;;;4997599;29;20070;-68
2021/07/10 09:40:12;;;;;;;19.85;18.35;;;21.80;68.00;;;;;;4997538;29;20487;-69
2021/07/10 09:42:45;;;;;;;20.75;19.15;;;21.90;68.60;;;;;;4994332;29;20472;-69
2021/07/10 09:45:25;;;;;;;20.20;18.63;;;21.90;67.70;;;;;;4996901;29;20054;-70
2021/07/10 09:48:09;;;;;;;19.85;18.33;;;21.90;66.20;;;;;;4999276;29;20589;-69
2021/07/10 09:50:41;;;;;;;19.98;18.38;;;22.00;66.90;;;;;;4992121;29;20145;-70
2021/07/10 09:53:25;;;;;;;20.55;18.90;;;22.10;65.80;;;;;;4992478;29;20042;-69
2021/07/10 09:56:10;;;;;;;20.20;18.70;;;22.10;67.30;;;;;;4998445;29;20519;-70
2021/07/10 09:58:42;;;;;;;20.30;18.77;;;22.20;66.00;;;;;;4993103;29;20121;-69
2021/07/10 10:01:32;;;;;;;20.60;19.10;;;22.30;66.70;;;;;;4991190;29;20061;-69
2021/07/10 10:04:24;;;;;;;21.30;19.60;;;22.30;67.30;;;;;;5006951;29;20062;-69
2021/07/10 10:06:57;;;;;;;20.52;18.90;;;22.40;65.60;;;;;;4992957;29;20069;-70
2021/07/10 10:09:31;;;;;;;21.38;19.77;;;22.50;65.10;;;;;;4991142;29;20047;-70
2021/07/10 10:12:12;;;;;;;20.90;19.30;;;22.60;65.90;;;;;;4990769;29;20150;-70
2021/07/10 10:14:50;;;;;;;20.73;19.23;;;22.60;64.00;;;;;;4995743;29;20499;-70
2021/07/10 10:17:22;;;;;;;20.85;19.33;;;22.60;65.00;;;;;;4992741;29;20273;-71
2021/07/10 10:19:55;;;;;;;20.63;19.13;;;22.60;65.90;;;;;;4992263;29;20126;-70
2021/07/10 10:22:27;;;;;;;20.35;18.85;;;22.60;64.20;;;;;;5007371;29;20541;-70
2021/07/10 10:25:00;;;;;;;20.23;18.63;;;22.70;64.30;;;;;;4990567;29;20128;-71
2021/07/10 10:27:32;;;;;;;20.88;19.15;;;22.70;63.60;;;;;;4990179;29;20125;-69
2021/07/10 10:30:04;;;;;;;20.17;18.60;;;22.70;62.90;;;;;;4990050;29;20058;-72
2021/07/10 10:32:37;;;;;;;20.33;18.70;;;22.70;63.60;;;;;;4990635;29;20049;-70
2021/07/10 10:35:09;;;;;;;20.02;18.52;;;22.90;64.80;;;;;;4993322;29;20090;-70
2021/07/10 10:37:41;;;;;;;20.48;18.98;;;22.90;65.90;;;;;;4995292;29;20113;-71
2021/07/10 10:40:16;;;;;;;20.45;18.85;;;23.00;63.70;;;;;;5003924;29;20069;-70
2021/07/10 10:42:59;;;;;;;20.67;19.15;;;22.90;62.80;;;;;;5008535;29;20053;-70
2021/07/10 10:45:31;;;;;;;20.23;18.73;;;22.90;64.10;;;;;;4991803;29;20126;-72
2021/07/10 10:48:05;;;;;;;20.80;19.20;;;23.00;63.50;;;;;;4990567;29;20049;-71
2021/07/10 10:50:40;;;;;;;21.02;19.33;;;23.10;64.00;;;;;;4994298;29;20074;-70
2021/07/10 10:53:22;;;;;;;21.23;19.52;;;23.10;64.00;;;;;;5004522;29;20042;-70
2021/07/10 10:55:54;;;;;;;20.73;19.23;;;23.20;63.90;;;;;;4990163;29;20077;-70
2021/07/10 10:58:26;;;;;;;20.67;19.08;;;23.20;62.60;;;;;;4992874;29;20081;-70
2021/07/10 11:01:08;;;;;;;20.65;19.02;;;23.20;63.80;;;;;;4990442;29;20050;-70
2021/07/10 11:03:42;;;;;;;20.65;19.05;;;23.30;62.70;;;;;;4991967;29;20045;-71
2021/07/10 11:06:30;;;;;;;20.80;19.20;;;23.30;62.00;;;;;;4991155;29;20103;-71
2021/07/10 11:09:02;;;;;;;20.95;19.45;;;23.30;62.30;;;;;;4989617;29;20125;-72
2021/07/10 11:11:36;;;;;;;20.95;19.45;;;23.40;62.60;;;;;;4989144;29;20069;-71
2021/07/10 11:14:12;;;;;;;20.98;19.35;;;23.50;62.30;;;;;;4991260;29;20051;-70
2021/07/10 11:17:02;;;;;;;20.92;19.30;;;23.60;60.80;;;;;;4989599;29;20120;-70
2021/07/10 11:19:49;;;;;;;20.73;19.23;;;23.70;62.30;;;;;;4992317;29;20805;-70
2021/07/10 11:22:54;;;;;;;20.95;19.45;;;23.70;60.10;;;;;;4990604;29;20546;-70
2021/07/10 11:25:44;;;;;;;21.30;19.70;;;23.80;62.40;;;;;;4988629;29;20054;-70
2021/07/10 11:28:20;;;;;;;21.42;19.83;;;23.90;62.10;;;;;;4992055;29;20132;-70
2021/07/10 11:30:58;;;;;;;20.90;19.40;;;24.10;60.80;;;;;;4993449;29;20514;-70
2021/07/10 11:34:00;;;;;;;20.95;19.35;;;24.00;60.50;;;;;;4992463;29;20124;-71
2021/07/10 11:36:36;;;;;;;21.45;19.85;;;24.10;59.20;;;;;;4991560;29;20049;-71
2021/07/10 11:39:23;;;;;;;21.63;20.02;;;24.20;60.80;;;;;;4991071;29;20514;-70
2021/07/10 11:41:58;;;;;;;22.10;20.30;;;24.20;59.10;;;;;;4991443;29;20060;-71
2021/07/10 11:44:30;;;;;;;21.77;20.27;;;24.30;60.20;;;;;;4995164;29;20050;-69
2021/07/10 11:47:02;;;;;;;22.13;20.52;;;24.40;60.30;;;;;;4992002;29;20556;-70
2021/07/10 11:49:40;;;;;;;22.02;20.30;;;24.50;59.70;;;;;;4979858;29;20143;-70
2021/07/10 11:52:18;;;;;;;21.77;20.17;;;24.50;58.60;;;;;;4990286;29;20552;-70
2021/07/10 11:54:51;;;;;;;21.45;19.90;;;24.50;57.60;;;;;;4993346;29;20141;-70
2021/07/10 11:57:26;;;;;;;22.20;20.60;;;24.60;57.90;;;;;;4992158;29;20082;-70
2021/07/10 11:59:58;;;;;;;21.60;20.10;;;24.70;60.80;;;;;;4996798;29;20046;-69
2021/07/10 12:02:32;;;;;;;22.10;20.40;;;24.80;59.20;;;;;;4993671;29;20083;-70
2021/07/10 12:05:14;;;;;;;22.02;20.42;;;24.90;58.80;;;;;;4987535;29;20543;-70
2021/07/10 12:07:50;;;;;;;22.42;20.55;;;24.90;60.30;;;;;;4990776;29;20062;-70
2021/07/10 12:10:30;;;;;;;21.92;20.33;;;25.00;58.90;;;;;;4995284;29;20204;-71
2021/07/10 12:13:12;;;;;;;22.13;20.52;;;25.10;60.00;;;;;;4992612;29;20054;-70
2021/07/10 12:15:49;;;;;;;22.17;20.58;;;25.10;57.30;;;;;;4989888;29;20141;-70
2021/07/10 12:18:25;;;;;;;21.75;20.15;;;25.10;59.10;;;;;;4994188;29;20052;-70
2021/07/10 12:20:59;;;;;;;22.65;20.95;;;25.20;57.80;;;;;;4993923;29;20103;-70
2021/07/10 12:23:39;;;;;;;22.17;20.48;;;25.20;57.60;;;;;;4988832;29;20049;-71
2021/07/10 12:26:14;;;;;;;22.17;20.48;;;25.30;58.20;;;;;;4997649;29;20564;-71
2021/07/10 12:28:55;;;;;;;22.77;20.98;;;25.30;60.40;;;;;;4995887;29;20049;-72
2021/07/10 12:31:35;;;;;;;22.40;20.80;;;25.40;58.80;;;;;;4993701;29;20121;-70
2021/07/10 12:34:13;;;;;;;22.13;20.42;;;25.50;58.80;;;;;;4994552;29;20137;-71
2021/07/10 12:36:46;;;;;;;22.58;20.98;;;25.60;57.80;;;;;;4994490;29;20069;-70
2021/07/10 12:39:20;;;;;;;22.38;20.67;;;25.60;57.60;;;;;;4992263;29;20395;-70
2021/07/10 12:41:56;;;;;;;21.83;20.23;;;25.50;57.00;;;;;;4992137;29;20579;-71
2021/07/10 12:44:39;;;;;;;21.85;20.15;;;25.50;57.20;;;;;;4991294;29;20057;-70
2021/07/10 12:47:21;;;;;;;22.10;20.50;;;25.60;58.30;;;;;;4992364;29;20065;-70
2021/07/10 12:49:59;;;;;;;22.70;21.00;;;25.70;58.80;;;;;;4991606;29;20539;-70
2021/07/10 12:52:50;;;;;;;22.27;20.55;;;25.70;56.80;;;;;;4987210;29;20586;-71
2021/07/10 12:55:34;;;;;;;22.35;20.75;;;25.80;58.50;;;;;;4991856;29;20066;-72
2021/07/10 12:58:05;;;;;;;22.05;20.45;;;25.70;54.50;;;;;;4992749;29;20081;-71
2021/07/10 13:00:39;;;;;;;22.38;20.75;;;25.60;55.70;;;;;;4998351;29;20069;-70